createdAt,value
2022-08-10T00:01:34.458Z,101924.56
2022-08-10T00:04:02.109Z,101919.44
2022-08-10T00:06:28.927Z,101924.22
2022-08-10T00:08:55.712Z,101921.38
2022-08-10T00:11:22.709Z,101926.56
2022-08-10T00:13:49.459Z,101921.50
2022-08-10T00:16:16.263Z,101927.59
2022-08-10T00:18:42.977Z,101922.34
2022-08-10T00:21:10.677Z,101919.88
2022-08-10T00:23:37.964Z,101925.88
2022-08-10T00:26:05.799Z,101915.09
2022-08-10T00:28:32.662Z,101915.47
2022-08-10T00:30:59.781Z,101916.56
2022-08-10T00:33:26.563Z,101917.91
2022-08-10T00:35:53.330Z,101914.50
2022-08-10T00:38:20.152Z,101915.00
2022-08-10T00:40:47.072Z,101910.22
2022-08-10T00:43:13.793Z,101908.38
2022-08-10T00:45:40.618Z,101905.06
2022-08-10T00:48:07.367Z,101902.25
2022-08-10T00:50:34.564Z,101895.50
2022-08-10T00:53:01.703Z,101893.69
2022-08-10T00:55:28.807Z,101894.19
2022-08-10T00:57:55.931Z,101893.56
2022-08-10T01:00:24.380Z,101882.03
2022-08-10T01:02:52.001Z,101885.22
2022-08-10T01:05:20.659Z,101893.78
2022-08-10T01:07:59.679Z,101885.94
2022-08-10T01:10:36.230Z,101884.13
2022-08-10T01:13:19.501Z,101888.38
2022-08-10T01:15:53.188Z,101881.28
2022-08-10T01:18:37.521Z,101889.22
2022-08-10T01:21:50.945Z,101882.50
2022-08-10T01:25:08.255Z,101890.81
2022-08-10T01:27:50.459Z,101883.34
2022-08-10T01:30:19.128Z,101890.09
2022-08-10T01:32:57.223Z,101880.78
2022-08-10T01:35:27.048Z,101880.56
2022-08-10T01:38:09.416Z,101878.56
2022-08-10T01:40:40.131Z,101891.66
2022-08-10T01:43:09.899Z,101880.97
2022-08-10T01:45:45.612Z,101888.06
2022-08-10T01:48:31.012Z,101885.25
2022-08-10T01:51:23.916Z,101882.91
2022-08-10T01:54:12.980Z,101876.53
2022-08-10T01:56:46.223Z,101874.09
2022-08-10T01:59:22.221Z,101879.38
2022-08-10T02:01:52.738Z,101876.72
2022-08-10T02:04:20.430Z,101870.97
2022-08-10T02:06:51.926Z,101870.50
2022-08-10T02:09:31.572Z,101876.34
2022-08-10T02:12:07.635Z,101872.44
2022-08-10T02:14:48.130Z,101883.56
2022-08-10T02:17:57.015Z,101887.13
2022-08-10T02:20:10.736Z,101871.94
2022-08-10T02:22:39.456Z,101868.84
2022-08-10T02:25:08.748Z,101879.53
2022-08-10T02:27:40.801Z,101870.53
2022-08-10T02:30:08.542Z,101872.72
2022-08-10T02:32:36.229Z,101875.19
2022-08-10T02:35:07.507Z,101883.28
2022-08-10T02:37:37.983Z,101878.72
2022-08-10T02:40:05.163Z,101881.06
2022-08-10T02:45:27.326Z,101875.91
2022-08-10T02:45:41.460Z,101879.31
2022-08-10T02:48:13.867Z,101884.16
2022-08-10T02:50:42.195Z,101879.03
2022-08-10T02:53:54.737Z,101880.13
2022-08-10T02:56:08.119Z,101877.06
2022-08-10T02:58:41.622Z,101876.66
2022-08-10T03:01:11.257Z,101878.06
2022-08-10T03:03:45.502Z,101877.41
2022-08-10T03:06:16.304Z,101875.69
2022-08-10T03:08:44.043Z,101883.44
2022-08-10T03:11:18.583Z,101885.53
2022-08-10T03:14:07.062Z,101877.69
2022-08-10T03:16:33.977Z,101882.56
2022-08-10T03:19:03.998Z,101875.19
2022-08-10T03:21:31.299Z,101884.41
2022-08-10T03:23:59.281Z,101871.47
2022-08-10T03:26:26.314Z,101875.25
2022-08-10T03:28:53.327Z,101882.69
2022-08-10T03:31:20.541Z,101880.38
2022-08-10T03:33:47.585Z,101885.38
2022-08-10T03:36:43.772Z,101880.00
2022-08-10T03:39:01.466Z,101885.50
2022-08-10T03:41:55.758Z,101880.56
2022-08-10T03:44:25.544Z,101881.34
2022-08-10T03:46:53.230Z,101882.19
2022-08-10T03:49:20.674Z,101881.13
2022-08-10T03:51:49.438Z,101885.47
2022-08-10T03:54:17.415Z,101891.19
2022-08-10T03:56:45.067Z,101888.59
2022-08-10T03:59:13.661Z,101884.44
2022-08-10T04:02:45.178Z,101894.75
2022-08-10T04:04:31.953Z,101892.06
2022-08-10T04:06:59.722Z,101893.13
2022-08-10T04:09:54.637Z,101888.06
2022-08-10T04:12:19.291Z,101889.69
2022-08-10T04:14:50.867Z,101889.69
2022-08-10T04:17:56.990Z,101890.13
2022-08-10T04:20:17.238Z,101893.59
2022-08-10T04:22:45.084Z,101897.84
2022-08-10T04:25:12.685Z,101890.91
2022-08-10T04:27:39.746Z,101899.66
2022-08-10T04:30:07.172Z,101894.94
2022-08-10T04:32:34.561Z,101896.53
2022-08-10T04:35:04.091Z,101896.53
2022-08-10T04:37:31.536Z,101897.50
2022-08-10T04:39:58.299Z,101898.94
2022-08-10T04:42:25.287Z,101905.03
2022-08-10T04:44:52.055Z,101908.50
2022-08-10T04:47:57.282Z,101906.66
2022-08-10T04:50:06.449Z,101912.38
2022-08-10T04:52:33.263Z,101902.59
2022-08-10T04:55:00.493Z,101911.06
2022-08-10T04:57:27.418Z,101906.84
2022-08-10T04:59:54.235Z,101901.25
2022-08-10T05:02:29.708Z,101910.28
2022-08-10T05:04:59.091Z,101911.31
2022-08-10T05:07:26.125Z,101917.09
2022-08-10T05:10:04.971Z,101912.78
2022-08-10T05:12:36.540Z,101918.16
2022-08-10T05:15:08.570Z,101915.75
2022-08-10T05:17:36.592Z,101922.91
2022-08-10T05:20:06.759Z,101919.09
2022-08-10T05:22:44.548Z,101915.66
2022-08-10T05:25:16.366Z,101926.63
2022-08-10T05:27:43.987Z,101933.09
2022-08-10T05:30:13.839Z,101925.03
2022-08-10T05:32:56.779Z,101931.44
2022-08-10T05:35:27.737Z,101924.00
2022-08-10T05:38:13.137Z,101930.41
2022-08-10T05:40:46.736Z,101934.66
2022-08-10T05:43:19.521Z,101937.22
2022-08-10T05:46:16.811Z,101934.59
2022-08-10T05:48:54.100Z,101934.91
2022-08-10T05:51:22.651Z,101939.22
2022-08-10T05:54:03.207Z,101943.06
2022-08-10T05:56:56.663Z,101932.31
2022-08-10T06:00:12.614Z,101937.28
2022-08-10T06:02:32.001Z,101936.94
2022-08-10T06:05:10.443Z,101939.88
2022-08-10T06:08:04.696Z,101939.97
2022-08-10T06:10:35.474Z,101932.22
2022-08-10T06:13:26.822Z,101940.16
2022-08-10T06:16:01.375Z,101935.88
2022-08-10T06:18:28.256Z,101942.16
2022-08-10T06:20:55.136Z,101945.63
2022-08-10T06:23:23.455Z,101935.88
2022-08-10T06:26:10.546Z,101938.56
2022-08-10T06:28:44.235Z,101938.00
2022-08-10T06:31:46.759Z,101931.16
2022-08-10T06:34:19.841Z,101935.53
2022-08-10T06:36:47.324Z,101935.81
2022-08-10T06:39:32.517Z,101938.88
2022-08-10T06:42:26.038Z,101930.56
2022-08-10T06:45:04.002Z,101935.25
2022-08-10T06:48:14.942Z,101936.22
2022-08-10T06:50:44.887Z,101938.19
2022-08-10T06:53:16.716Z,101925.78
2022-08-10T06:55:55.216Z,101931.66
2022-08-10T06:58:26.960Z,101929.06
2022-08-10T07:00:55.314Z,101928.81
2022-08-10T07:03:26.785Z,101923.13
2022-08-10T07:05:54.849Z,101923.63
2022-08-10T07:08:23.561Z,101922.25
2022-08-10T07:10:51.507Z,101915.72
2022-08-10T07:14:14.113Z,101915.34
2022-08-10T07:16:11.760Z,101912.72
2022-08-10T07:18:39.078Z,101911.94
2022-08-10T07:21:07.478Z,101917.53
2022-08-10T07:23:58.807Z,101911.63
2022-08-10T07:26:22.483Z,101908.00
2022-08-10T07:28:51.163Z,101916.81
2022-08-10T07:31:55.156Z,101908.31
2022-08-10T07:34:10.620Z,101922.16
2022-08-10T07:36:38.842Z,101913.38
2022-08-10T07:39:06.370Z,101914.09
2022-08-10T07:41:33.520Z,101915.56
2022-08-10T07:44:04.324Z,101915.00
2022-08-10T07:46:33.859Z,101924.91
2022-08-10T07:49:19.011Z,101924.53
2022-08-10T07:51:54.363Z,101921.41
2022-08-10T07:54:23.587Z,101922.13
2022-08-10T07:56:53.145Z,101929.34
2022-08-10T07:59:33.266Z,101921.53
2022-08-10T08:02:01.133Z,101919.72
2022-08-10T08:04:28.907Z,101923.06
2022-08-10T08:06:55.937Z,101917.09
2022-08-10T08:09:23.741Z,101917.81
2022-08-10T08:11:51.775Z,101916.44
2022-08-10T08:14:19.291Z,101927.41
2022-08-10T08:16:48.224Z,101922.59
2022-08-10T08:19:37.780Z,101917.03
2022-08-10T08:24:06.967Z,101912.22
2022-08-10T08:24:52.674Z,101905.94
2022-08-10T08:27:20.721Z,101904.56
2022-08-10T08:29:49.379Z,101903.16
2022-08-10T08:32:19.683Z,101909.09
2022-08-10T08:34:47.024Z,101910.56
2022-08-10T08:38:28.779Z,101907.56
2022-08-10T08:40:06.225Z,101898.44
2022-08-10T08:42:51.897Z,101907.69
2022-08-10T08:45:22.634Z,101897.00
2022-08-10T08:48:05.379Z,101897.25
2022-08-10T08:50:46.552Z,101900.41
2022-08-10T08:53:22.277Z,101896.06
2022-08-10T08:56:07.519Z,101900.47
2022-08-10T08:58:58.639Z,101899.50
2022-08-10T09:01:37.967Z,101898.47
2022-08-10T09:04:20.062Z,101897.28
2022-08-10T09:07:59.196Z,101899.97
2022-08-10T09:10:14.057Z,101889.94
2022-08-10T09:12:43.862Z,101887.09
2022-08-10T09:18:04.986Z,101884.88
2022-08-10T09:20:59.064Z,101889.19
2022-08-10T09:24:05.429Z,101892.50
2022-08-10T09:26:28.231Z,101891.88
2022-08-10T09:29:04.574Z,101885.84
2022-08-10T09:33:05.372Z,101885.13
2022-08-10T09:36:24.062Z,101888.22
2022-08-10T09:38:01.658Z,101877.31
2022-08-10T09:41:00.804Z,101877.28
2022-08-10T09:43:38.643Z,101870.47
2022-08-10T09:46:21.626Z,101870.16
2022-08-10T09:49:53.281Z,101874.09
2022-08-10T09:52:22.133Z,101870.78
2022-08-10T09:55:15.611Z,101872.25
2022-08-10T09:57:58.636Z,101861.88
2022-08-10T10:00:32.362Z,101863.00
2022-08-10T10:03:26.065Z,101871.88
2022-08-10T10:06:28.126Z,101863.69
2022-08-10T10:09:27.388Z,101867.63
2022-08-10T10:12:09.998Z,101859.63
2022-08-10T10:15:24.796Z,101856.41
2022-08-10T10:18:07.702Z,101860.66
2022-08-10T10:20:53.140Z,101852.03
2022-08-10T10:24:21.782Z,101861.38
2022-08-10T10:26:54.396Z,101849.91
2022-08-10T10:29:57.946Z,101850.56
2022-08-10T10:32:45.385Z,101842.41
2022-08-10T10:35:16.790Z,101834.47
2022-08-10T10:38:02.103Z,101829.50
2022-08-10T10:40:48.232Z,101830.78
2022-08-10T10:43:29.728Z,101825.44
2022-08-10T10:46:23.300Z,101830.19
2022-08-10T10:49:07.809Z,101822.03
2022-08-10T10:51:42.528Z,101823.81
2022-08-10T10:54:32.016Z,101828.41
2022-08-10T10:57:07.686Z,101828.25
2022-08-10T10:59:57.724Z,101818.91
2022-08-10T11:02:51.053Z,101825.56
2022-08-10T11:05:34.555Z,101823.53
2022-08-10T11:08:13.025Z,101822.47
2022-08-10T11:10:56.422Z,101820.56
2022-08-10T11:14:24.549Z,101821.44
2022-08-10T11:16:21.819Z,101811.38
2022-08-10T11:18:51.881Z,101820.38
2022-08-10T11:21:38.872Z,101809.31
2022-08-10T11:24:46.921Z,101806.06
2022-08-10T11:27:05.902Z,101798.25
2022-08-10T11:29:42.598Z,101805.03
2022-08-10T11:32:20.380Z,101794.06
2022-08-10T11:35:10.895Z,101799.72
2022-08-10T11:38:34.159Z,101796.44
2022-08-10T11:40:45.556Z,101790.78
2022-08-10T11:43:24.083Z,101787.63
2022-08-10T11:46:07.835Z,101786.13
2022-08-10T11:48:53.823Z,101783.75
2022-08-10T11:51:35.979Z,101787.00
2022-08-10T11:54:10.632Z,101774.13
2022-08-10T11:56:59.922Z,101776.97
2022-08-10T11:59:50.305Z,101774.66
2022-08-10T12:02:20.614Z,101768.81
2022-08-10T12:04:49.013Z,101774.78
2022-08-10T12:10:01.570Z,101779.53
2022-08-10T12:10:13.546Z,101765.00
2022-08-10T12:13:08.730Z,101762.38
2022-08-10T12:15:43.954Z,101768.31
2022-08-10T12:18:24.428Z,101763.00
2022-08-10T12:20:56.139Z,101772.94
2022-08-10T12:23:27.699Z,101763.56
2022-08-10T12:26:14.203Z,101755.97
2022-08-10T12:28:59.683Z,101755.13
2022-08-10T12:31:41.144Z,101764.91
2022-08-10T12:34:19.425Z,101765.31
2022-08-10T12:36:56.455Z,101761.25
2022-08-10T12:39:27.613Z,101758.53
2022-08-10T12:42:06.228Z,101748.13
2022-08-10T12:44:43.514Z,101744.47
2022-08-10T12:47:19.282Z,101750.78
2022-08-10T12:50:31.149Z,101742.81
2022-08-10T12:53:06.347Z,101742.22
2022-08-10T12:55:34.229Z,101734.31
2022-08-10T12:58:05.541Z,101724.47
2022-08-10T13:01:14.733Z,101728.84
2022-08-10T13:04:21.915Z,101725.13
2022-08-10T13:06:26.875Z,101722.25
2022-08-10T13:09:09.356Z,101717.59
2022-08-10T13:12:38.988Z,101712.06
2022-08-10T13:14:46.741Z,101712.78
2022-08-10T13:17:14.846Z,101712.66
2022-08-10T13:19:56.396Z,101711.44
2022-08-10T13:22:32.144Z,101703.13
2022-08-10T13:25:01.688Z,101702.38
2022-08-10T13:28:00.806Z,101691.88
2022-08-10T13:30:33.678Z,101692.28
2022-08-10T13:33:06.538Z,101691.03
2022-08-10T13:35:34.257Z,101686.41
2022-08-10T13:38:04.131Z,101685.00
2022-08-10T13:40:32.450Z,101678.03
2022-08-10T13:43:01.063Z,101688.19
2022-08-10T13:45:28.497Z,101681.84
2022-08-10T13:48:08.695Z,101678.25
2022-08-10T13:50:37.396Z,101672.69
2022-08-10T13:53:11.510Z,101666.16
2022-08-10T13:55:54.285Z,101663.78
2022-08-10T13:58:34.406Z,101659.09
2022-08-10T14:01:09.484Z,101654.47
2022-08-10T14:03:39.445Z,101666.75
2022-08-10T14:06:09.538Z,101663.41
2022-08-10T14:08:38.053Z,101663.56
2022-08-10T14:11:11.029Z,101652.53
2022-08-10T14:13:58.792Z,101659.88
2022-08-10T14:16:26.975Z,101650.81
2022-08-10T14:18:57.225Z,101645.59
2022-08-10T14:21:24.045Z,101652.13
2022-08-10T14:23:52.958Z,101645.09
2022-08-10T14:26:26.816Z,101643.59
2022-08-10T14:28:57.503Z,101639.53
2022-08-10T14:31:30.402Z,101638.81
2022-08-10T14:33:58.501Z,101629.47
2022-08-10T14:36:43.284Z,101633.78
2022-08-10T14:39:21.229Z,101633.31
2022-08-10T14:42:02.843Z,101626.75
2022-08-10T14:44:44.359Z,101630.50
2022-08-10T14:47:52.298Z,101629.84
2022-08-10T14:50:00.516Z,101628.75
2022-08-10T14:52:27.752Z,101630.13
2022-08-10T14:54:55.794Z,101633.44
2022-08-10T14:57:23.816Z,101627.47
2022-08-10T15:00:29.398Z,101616.59
2022-08-10T15:02:59.705Z,101623.66
2022-08-10T15:05:39.695Z,101633.78
2022-08-10T15:08:09.211Z,101621.22
2022-08-10T15:10:36.496Z,101616.41
2022-08-10T15:13:06.833Z,101625.22
2022-08-10T15:16:11.438Z,101616.47
2022-08-10T15:18:58.223Z,101609.41
2022-08-10T15:21:37.825Z,101606.00
2022-08-10T15:24:15.943Z,101603.13
2022-08-10T15:26:57.526Z,101603.00
2022-08-10T15:29:26.093Z,101602.38
2022-08-10T15:32:12.283Z,101601.56
2022-08-10T15:34:57.787Z,101593.19
2022-08-10T15:37:40.853Z,101591.41
2022-08-10T15:40:23.743Z,101590.25
2022-08-10T15:43:02.402Z,101593.47
2022-08-10T15:45:33.763Z,101584.75
2022-08-10T15:48:03.781Z,101579.47
2022-08-10T15:50:40.058Z,101584.16
2022-08-10T15:53:15.869Z,101588.16
2022-08-10T15:55:56.628Z,101582.50
2022-08-10T15:58:39.900Z,101579.09
2022-08-10T16:02:14.620Z,101581.25
2022-08-10T16:04:32.307Z,101580.47
2022-08-10T16:07:06.204Z,101577.19
2022-08-10T16:10:26.231Z,101584.19
2022-08-10T16:12:40.933Z,101578.66
2022-08-10T16:15:12.761Z,101581.16
2022-08-10T16:17:55.637Z,101574.13
2022-08-10T16:20:53.527Z,101582.56
2022-08-10T16:23:34.444Z,101577.03
2022-08-10T16:26:14.784Z,101578.00
2022-08-10T16:28:55.628Z,101574.97
2022-08-10T16:31:24.960Z,101576.75
2022-08-10T16:33:55.051Z,101570.84
2022-08-10T16:36:23.627Z,101567.41
2022-08-10T16:38:50.843Z,101573.44
2022-08-10T16:42:03.080Z,101566.03
2022-08-10T16:44:09.603Z,101563.00
2022-08-10T16:46:41.643Z,101559.25
2022-08-10T16:49:09.096Z,101562.44
2022-08-10T16:51:35.867Z,101557.19
2022-08-10T16:54:03.602Z,101563.53
2022-08-10T16:56:33.999Z,101569.22
2022-08-10T16:59:17.511Z,101564.41
2022-08-10T17:01:53.589Z,101565.00
2022-08-10T17:04:22.745Z,101564.97
2022-08-10T17:06:56.486Z,101560.75
2022-08-10T17:09:27.373Z,101560.13
2022-08-10T17:11:55.735Z,101558.22
2022-08-10T17:14:24.803Z,101558.19
2022-08-10T17:16:57.511Z,101555.06
2022-08-10T17:19:25.923Z,101557.19
2022-08-10T17:21:59.130Z,101559.28
2022-08-10T17:24:39.456Z,101558.25
2022-08-10T17:28:03.775Z,101551.88
2022-08-10T17:30:02.800Z,101552.03
2022-08-10T17:32:43.875Z,101551.75
2022-08-10T17:35:14.439Z,101555.75
2022-08-10T17:37:48.079Z,101550.84
2022-08-10T17:40:18.111Z,101552.31
2022-08-10T17:42:46.532Z,101551.25
2022-08-10T17:45:46.327Z,101551.16
2022-08-10T17:48:10.598Z,101546.69
2022-08-10T17:50:38.102Z,101565.19
2022-08-10T17:53:10.865Z,101561.59
2022-08-10T17:55:38.918Z,101562.44
2022-08-10T17:58:12.451Z,101556.84
2022-08-10T18:00:42.551Z,101554.66
2022-08-10T18:03:15.785Z,101561.06
2022-08-10T18:05:55.988Z,101564.97
2022-08-10T18:08:32.864Z,101561.16
2022-08-10T18:11:02.102Z,101564.00
2022-08-10T18:13:55.993Z,101558.75
2022-08-10T18:16:23.307Z,101566.13
2022-08-10T18:19:00.190Z,101560.72
2022-08-10T18:21:30.862Z,101577.03
2022-08-10T18:24:09.216Z,101566.69
2022-08-10T18:26:41.342Z,101567.22
2022-08-10T18:29:18.634Z,101571.75
2022-08-10T18:31:47.952Z,101574.63
2022-08-10T18:34:20.302Z,101580.69
2022-08-10T18:36:47.959Z,101586.31
2022-08-10T18:39:16.640Z,101581.28
2022-08-10T18:42:00.623Z,101578.00
2022-08-10T18:44:35.805Z,101583.59
2022-08-10T18:47:35.002Z,101588.00
2022-08-10T18:50:07.151Z,101592.34
2022-08-10T18:52:35.042Z,101593.72
2022-08-10T18:55:14.424Z,101595.13
2022-08-10T18:58:11.861Z,101596.81
2022-08-10T19:00:57.354Z,101608.09
2022-08-10T19:03:54.124Z,101605.72
2022-08-10T19:06:34.735Z,101605.41
2022-08-10T19:09:45.412Z,101602.69
2022-08-10T19:12:30.337Z,101598.78
2022-08-10T19:15:16.659Z,101594.91
2022-08-10T19:18:06.160Z,101603.06
2022-08-10T19:20:49.582Z,101600.50
2022-08-10T19:23:44.098Z,101610.53
2022-08-10T19:26:44.054Z,101613.22
2022-08-10T19:30:11.622Z,101616.63
2022-08-10T19:32:47.352Z,101615.59
2022-08-10T19:36:03.279Z,101617.25
2022-08-10T19:38:37.215Z,101622.84
2022-08-10T19:41:32.242Z,101615.34
2022-08-10T19:44:37.005Z,101623.13
2022-08-10T19:47:15.054Z,101628.16
2022-08-10T19:50:04.905Z,101625.25
2022-08-10T19:52:43.067Z,101634.00
2022-08-10T19:55:37.774Z,101631.25
2022-08-10T19:58:21.154Z,101633.06
2022-08-10T20:00:57.420Z,101642.69
2022-08-10T20:03:46.076Z,101638.59
2022-08-10T20:06:19.408Z,101632.66
2022-08-10T20:09:11.022Z,101641.28
2022-08-10T20:12:00.650Z,101647.72
2022-08-10T20:14:43.863Z,101637.84
2022-08-10T20:17:25.641Z,101636.81
2022-08-10T20:19:58.908Z,101637.28
2022-08-10T20:22:33.818Z,101635.34
2022-08-10T20:25:06.546Z,101635.81
2022-08-10T20:28:01.246Z,101635.41
2022-08-10T20:30:32.045Z,101638.91
2022-08-10T20:33:01.028Z,101646.59
2022-08-10T20:35:31.604Z,101648.88
2022-08-10T20:38:08.816Z,101647.47
2022-08-10T20:40:39.441Z,101649.63
2022-08-10T20:43:31.631Z,101647.00
2022-08-10T20:46:25.147Z,101651.19
2022-08-10T20:49:41.856Z,101645.84
2022-08-10T20:52:08.999Z,101652.25
2022-08-10T20:54:43.020Z,101648.84
2022-08-10T20:57:55.608Z,101648.59
2022-08-10T21:00:23.154Z,101655.50
2022-08-10T21:03:20.856Z,101645.38
2022-08-10T21:06:27.348Z,101646.16
2022-08-10T21:09:15.234Z,101647.34
2022-08-10T21:12:15.642Z,101644.06
2022-08-10T21:15:07.588Z,101651.47
2022-08-10T21:17:43.894Z,101648.63
2022-08-10T21:20:45.114Z,101642.66
2022-08-10T21:23:14.927Z,101634.53
2022-08-10T21:25:59.132Z,101641.28
2022-08-10T21:28:34.969Z,101642.25
2022-08-10T21:31:38.523Z,101645.72
2022-08-10T21:34:37.471Z,101642.28
2022-08-10T21:37:14.459Z,101643.19
2022-08-10T21:39:47.015Z,101635.38
2022-08-10T21:42:42.883Z,101634.44
2022-08-10T21:46:19.703Z,101640.84
2022-08-10T21:49:37.346Z,101641.59
2022-08-10T21:52:31.637Z,101643.47
2022-08-10T21:55:55.833Z,101634.78
2022-08-10T21:58:51.463Z,101642.19
2022-08-10T22:01:51.256Z,101635.50
2022-08-10T22:04:38.638Z,101640.63
2022-08-10T22:07:27.119Z,101634.22
2022-08-10T22:10:13.890Z,101632.81
2022-08-10T22:13:03.191Z,101630.50
2022-08-10T22:16:05.682Z,101628.66
2022-08-10T22:19:03.359Z,101632.81
2022-08-10T22:21:54.843Z,101622.41
2022-08-10T22:25:02.290Z,101628.81
2022-08-10T22:27:54.794Z,101621.59
2022-08-10T22:30:57.874Z,101627.69
2022-08-10T22:34:01.253Z,101622.13
2022-08-10T22:37:11.394Z,101631.56
2022-08-10T22:40:20.857Z,101627.03
2022-08-10T22:43:11.084Z,101622.31
2022-08-10T22:46:05.342Z,101627.59
2022-08-10T22:48:58.533Z,101627.19
2022-08-10T22:51:32.564Z,101623.38
2022-08-10T22:54:31.238Z,101627.50
2022-08-10T22:57:20.661Z,101627.25
2022-08-10T22:59:48.070Z,101620.69
2022-08-10T23:02:28.986Z,101618.69
2022-08-10T23:05:02.838Z,101625.94
2022-08-10T23:07:32.922Z,101613.03
2022-08-10T23:10:11.865Z,101614.41
2022-08-10T23:12:50.331Z,101604.75
2022-08-10T23:15:44.437Z,101598.22
2022-08-10T23:18:34.929Z,101611.88
2022-08-10T23:21:02.527Z,101607.31
2022-08-10T23:23:36.920Z,101603.75
2022-08-10T23:26:05.627Z,101606.75
2022-08-10T23:28:55.507Z,101607.28
2022-08-10T23:31:59.169Z,101599.47
2022-08-10T23:34:11.366Z,101606.16
2022-08-10T23:36:39.330Z,101609.16
2022-08-10T23:39:25.871Z,101602.03
2022-08-10T23:42:03.115Z,101598.50
2022-08-10T23:44:41.847Z,101601.03
2022-08-10T23:47:09.663Z,101610.16
2022-08-10T23:49:37.691Z,101602.78
2022-08-10T23:52:28.188Z,101598.75
2022-08-10T23:55:05.354Z,101609.03
2022-08-10T23:57:34.345Z,101599.34
